This is the latest recevied weather packets stored in our database for station/object KC0OOO-WX. If no packets are shown the sender has not sent any weather packets the latest 1 day(s).
| Time | Temp. | Humidity | Pressure | Rain* | Wind** | Luminosity | Snow |
|---|---|---|---|---|---|---|---|
| 1778008446 | 14.44° C | 30% | 1012.9 hPa | 0 mm | 2.68 m/s, 288° | - | - |
| 1778007846 | 14.44° C | 30% | 1013.2 hPa | 0 mm | 1.34 m/s, 265° | - | - |
| 1778007246 | 14.44° C | 31% | 1013.2 hPa | 0 mm | 1.34 m/s, 236° | - | - |
| 1778006646 | 13.89° C | 30% | 1013.5 hPa | 0 mm | 1.34 m/s, 331° | - | - |
| 1778006046 | 13.89° C | 29% | 1013.5 hPa | 0 mm | 2.24 m/s, 271° | - | - |
| 1778005446 | 13.89° C | 29% | 1013.5 hPa | 0 mm | 0.45 m/s, 327° | - | - |
| 1778004846 | 13.33° C | 31% | 1013.5 hPa | 0 mm | 1.34 m/s, 295° | - | - |
| 1778004246 | 13.33° C | 30% | 1013.5 hPa | 0 mm | 2.24 m/s, 0° | - | - |
| 1778003646 | 13.89° C | 29% | 1013.5 hPa | 0 mm | 0.45 m/s, 354° | - | - |
| 1778003046 | 13.33° C | 31% | 1013.9 hPa | 0 mm | 0.45 m/s, 26° | - | - |
| 1778002446 | 13.33° C | 30% | 1013.9 hPa | 0 mm | 0.45 m/s, 100° | - | - |
| 1778001846 | 12.78° C | 32% | 1013.9 hPa | 0 mm | 0.45 m/s, 7° | - | - |
| 1778001246 | 11.67° C | 36% | 1013.9 hPa | 0 mm | 0.45 m/s, 13° | - | - |
| 1778000646 | 11.67° C | 36% | 1013.9 hPa | 0 mm | 0 m/s | - | - |
| 1778000046 | 11.67° C | 38% | 1013.9 hPa | 0 mm | 0.45 m/s, 18° | - | - |
| 1777999416 | 11.67° C | 37% | 1014.2 hPa | 0 mm | 0.45 m/s, 179° | - | - |
| 1777998786 | 11.11° C | 38% | 1014.2 hPa | 0 mm | 0 m/s | - | - |
| 1777998156 | 11.11° C | 38% | 1014.2 hPa | 0 mm | 0.89 m/s, 217° | - | - |
| 1777997556 | 11.11° C | 38% | 1014.2 hPa | 0 mm | 0.89 m/s, 203° | - | - |
| 1777996956 | 10.56° C | 43% | 1014.2 hPa | 0 mm | 0.45 m/s, 252° | - | - |
| 1777996356 | 10° C | 45% | 1014.3 hPa | 0 mm | 0.45 m/s, 187° | - | - |
| 1777995756 | 8.89° C | 48% | 1014.6 hPa | 0 mm | 0 m/s | - | - |
| 1777995156 | 8.33° C | 48% | 1014.6 hPa | 0 mm | 0 m/s | - | - |
| 1777994556 | 8.33° C | 50% | 1014.6 hPa | 0 mm | 0 m/s | - | - |
| 1777993956 | 7.78° C | 50% | 1014.6 hPa | 0 mm | 0 m/s | - | - |
* Rain latest hour (hover to see other rain measurements)
** Current wind speed in m/s (hover to see current wind gust speed)